createdAt,value
2023-02-19T00:02:59.437Z,98649.69
2023-02-19T00:08:02.859Z,98644.34
2023-02-19T00:13:07.619Z,98648.38
2023-02-19T00:18:11.063Z,98486.44
2023-02-19T00:23:14.731Z,98643.47
2023-02-19T00:28:19.556Z,98630.16
2023-02-19T00:33:22.919Z,98510.72
2023-02-19T00:38:26.360Z,98644.94
2023-02-19T00:43:31.155Z,98646.59
2023-02-19T00:48:34.468Z,98632.06
2023-02-19T00:53:38.023Z,98607.34
2023-02-19T00:58:42.982Z,98636.00
2023-02-19T01:03:47.876Z,98624.06
2023-02-19T01:08:51.540Z,98521.78
2023-02-19T01:14:00.206Z,98616.63
2023-02-19T01:19:04.026Z,98609.25
2023-02-19T01:24:07.686Z,98607.50
2023-02-19T01:29:12.540Z,98551.59
2023-02-19T01:34:15.975Z,98604.38
2023-02-19T01:39:20.411Z,98598.38
2023-02-19T01:50:29.608Z,98600.22
2023-02-19T01:55:34.525Z,98594.13
2023-02-19T02:00:38.582Z,98599.84
2023-02-19T02:05:51.270Z,98575.66
2023-02-19T02:10:57.029Z,98395.66
2023-02-19T02:16:09.445Z,98596.19
2023-02-19T02:21:46.855Z,98576.31
2023-02-19T02:27:07.903Z,98567.59
2023-02-19T02:32:16.886Z,98561.41
2023-02-19T02:37:26.777Z,98562.25
2023-02-19T02:42:30.713Z,98556.88
2023-02-19T02:47:51.550Z,98354.59
2023-02-19T02:53:19.950Z,98583.59
2023-02-19T02:58:25.998Z,98542.53
2023-02-19T03:03:36.003Z,98554.19
2023-02-19T03:08:44.412Z,98549.47
2023-02-19T03:14:05.943Z,98544.84
2023-02-19T03:19:21.127Z,98516.63
2023-02-19T03:24:50.627Z,98546.50
2023-02-19T03:29:58.090Z,98533.47
2023-02-19T03:35:08.548Z,98510.81
2023-02-19T03:40:43.288Z,98523.28
2023-02-19T03:45:54.712Z,98546.44
2023-02-19T03:51:12.735Z,98541.13
2023-02-19T03:56:23.367Z,98548.06
2023-02-19T04:01:32.236Z,98493.03
2023-02-19T04:06:40.005Z,98556.50
2023-02-19T04:11:44.483Z,98531.66
2023-02-19T04:16:52.545Z,98560.88
2023-02-19T04:21:59.595Z,98573.72
2023-02-19T04:27:28.537Z,98469.78
2023-02-19T04:32:31.932Z,98430.25
2023-02-19T04:37:36.701Z,98592.88
2023-02-19T04:42:40.083Z,98593.47
2023-02-19T04:47:43.508Z,98593.63
2023-02-19T04:52:48.230Z,98616.25
2023-02-19T04:57:51.873Z,98623.03
2023-02-19T05:02:55.362Z,98239.69
2023-02-19T05:08:00.141Z,98600.38
2023-02-19T05:13:03.482Z,98577.59
2023-02-19T05:18:06.900Z,98618.19
2023-02-19T05:23:11.656Z,98553.69
2023-02-19T05:28:21.031Z,98619.22
2023-02-19T05:33:25.964Z,98609.03
2023-02-19T05:38:30.736Z,98589.72
2023-02-19T05:43:34.163Z,98589.88
2023-02-19T05:48:38.066Z,98633.97
2023-02-19T05:53:44.369Z,98412.41
2023-02-19T05:58:48.167Z,98502.13
2023-02-19T06:03:51.644Z,98583.50
2023-02-19T06:08:56.528Z,98650.34
2023-02-19T06:13:59.989Z,98597.47
2023-02-19T06:19:04.392Z,98507.16
2023-02-19T06:24:10.180Z,98642.81
2023-02-19T06:29:13.538Z,98586.13
2023-02-19T06:34:16.930Z,98612.81
2023-02-19T06:39:21.685Z,98672.59
2023-02-19T06:44:25.308Z,98658.34
2023-02-19T06:49:28.872Z,98683.09
2023-02-19T06:54:34.444Z,98692.31
2023-02-19T06:59:37.803Z,98674.03
2023-02-19T07:04:41.324Z,98714.19
2023-02-19T07:09:46.089Z,98531.03
2023-02-19T07:14:49.477Z,98729.22
2023-02-19T07:19:52.877Z,98702.06
2023-02-19T07:24:57.595Z,98740.63
2023-02-19T07:30:02.160Z,98755.03
2023-02-19T07:35:06.154Z,98750.03
2023-02-19T07:40:11.649Z,98770.59
2023-02-19T07:45:15.625Z,98794.81
2023-02-19T07:50:19.090Z,98767.22
2023-02-19T07:55:23.780Z,98782.66
2023-02-19T08:00:27.818Z,98785.13
2023-02-19T08:05:33.039Z,98753.72
2023-02-19T08:10:55.821Z,98736.34
2023-02-19T08:16:19.951Z,98781.75
2023-02-19T08:21:24.455Z,98724.28
2023-02-19T08:26:29.380Z,98725.94
2023-02-19T08:31:33.017Z,98763.41
2023-02-19T08:36:36.680Z,98824.13
2023-02-19T08:41:41.452Z,98776.47
2023-02-19T08:46:44.871Z,98770.16
2023-02-19T08:51:48.439Z,98784.53
2023-02-19T08:56:53.226Z,98786.22
2023-02-19T09:01:56.762Z,98772.81
2023-02-19T09:07:00.162Z,98460.44
2023-02-19T09:12:06.108Z,98839.50
2023-02-19T09:17:10.268Z,98798.72
2023-02-19T09:22:13.741Z,98864.63
2023-02-19T09:27:19.871Z,98865.41
2023-02-19T09:32:23.262Z,98910.31
2023-02-19T09:37:32.067Z,98779.81
2023-02-19T09:42:42.838Z,98869.41
2023-02-19T09:47:48.914Z,98679.81
2023-02-19T09:52:56.050Z,98863.63
2023-02-19T09:58:03.403Z,98874.72
2023-02-19T10:03:12.013Z,98857.78
2023-02-19T10:08:20.872Z,98863.19
2023-02-19T10:13:31.448Z,98895.69
2023-02-19T10:18:39.623Z,98599.19
2023-02-19T10:23:45.323Z,98875.34
2023-02-19T10:28:50.594Z,98881.03
2023-02-19T10:33:56.106Z,98797.78
2023-02-19T10:39:00.405Z,98874.69
2023-02-19T10:44:08.353Z,98902.00
2023-02-19T10:49:24.289Z,98900.06
2023-02-19T10:54:31.190Z,98838.75
2023-02-19T10:59:36.032Z,98908.44
2023-02-19T11:04:39.591Z,98922.28
2023-02-19T11:09:46.316Z,98894.84
2023-02-19T11:14:51.249Z,98906.78
2023-02-19T11:19:57.093Z,98899.03
2023-02-19T11:25:07.215Z,98914.00
2023-02-19T11:30:38.640Z,98899.47
2023-02-19T11:35:42.148Z,98912.25
2023-02-19T11:40:50.487Z,98915.50
2023-02-19T11:46:04.349Z,98854.91
2023-02-19T11:51:52.121Z,98913.16
2023-02-19T11:57:06.490Z,98942.94
2023-02-19T12:02:38.077Z,98919.91
2023-02-19T12:08:20.339Z,98939.56
2023-02-19T12:13:35.172Z,98928.13
2023-02-19T12:19:21.146Z,98883.63
2023-02-19T12:25:08.765Z,98878.16
2023-02-19T12:30:32.805Z,98904.78
2023-02-19T12:35:56.356Z,98879.63
2023-02-19T12:41:20.743Z,98919.09
2023-02-19T12:46:30.525Z,98571.06
2023-02-19T12:51:42.458Z,98869.28
2023-02-19T12:56:51.170Z,98911.69
2023-02-19T13:02:01.249Z,98869.22
2023-02-19T13:07:10.205Z,98665.09
2023-02-19T13:12:18.669Z,98715.72
2023-02-19T13:17:27.746Z,98907.25
2023-02-19T13:22:56.859Z,98904.94
2023-02-19T13:28:14.160Z,98842.06
2023-02-19T13:33:31.752Z,98926.59
2023-02-19T13:38:40.097Z,98911.44
2023-02-19T13:43:46.905Z,98893.16
2023-02-19T13:49:27.195Z,98902.72
2023-02-19T13:54:36.053Z,98902.53
2023-02-19T13:59:40.824Z,98903.00
2023-02-19T14:04:53.371Z,98805.91
2023-02-19T14:10:01.251Z,98885.44
2023-02-19T14:15:43.931Z,98879.63
2023-02-19T14:20:47.692Z,98854.97
2023-02-19T14:25:59.941Z,98871.41
2023-02-19T14:31:18.110Z,98900.13
2023-02-19T14:36:48.849Z,98896.16
2023-02-19T14:41:57.359Z,98860.97
2023-02-19T14:47:05.543Z,98868.63
2023-02-19T14:52:14.249Z,98930.56
2023-02-19T14:57:23.244Z,98913.94
2023-02-19T15:02:28.459Z,98926.59
2023-02-19T15:07:34.851Z,98864.31
2023-02-19T15:12:47.657Z,98957.41
2023-02-19T15:17:52.302Z,98958.13
2023-02-19T15:22:57.359Z,98970.50
2023-02-19T15:28:21.149Z,98967.81
2023-02-19T15:33:24.852Z,98978.63
2023-02-19T15:38:29.928Z,98734.78
2023-02-19T15:43:40.632Z,98972.34
2023-02-19T15:48:51.059Z,98872.28
2023-02-19T15:53:58.723Z,98969.06
2023-02-19T15:59:08.271Z,98636.78
2023-02-19T16:04:14.310Z,98976.75
2023-02-19T16:09:21.956Z,98945.84
2023-02-19T16:14:32.462Z,98982.13
2023-02-19T16:19:46.827Z,98984.66
2023-02-19T16:24:52.394Z,98988.63
2023-02-19T16:29:57.715Z,99000.00
2023-02-19T16:35:01.212Z,98998.81
2023-02-19T16:40:47.527Z,98985.56
2023-02-19T16:45:52.318Z,98974.03
2023-02-19T16:50:55.996Z,98950.31
2023-02-19T16:55:59.832Z,98798.53
2023-02-19T17:01:04.786Z,98920.34
2023-02-19T17:06:08.302Z,98953.28
2023-02-19T17:11:14.562Z,99003.84
2023-02-19T17:16:21.237Z,99015.06
2023-02-19T17:21:26.957Z,98966.00
2023-02-19T17:26:32.640Z,99018.88
2023-02-19T17:31:37.906Z,98943.22
2023-02-19T17:36:43.245Z,99029.75
2023-02-19T17:41:46.713Z,99045.16
2023-02-19T17:46:51.578Z,99049.19
2023-02-19T17:51:55.157Z,98751.75
2023-02-19T17:56:58.482Z,99064.97
2023-02-19T18:02:03.433Z,99034.03
2023-02-19T18:07:06.925Z,99046.09
2023-02-19T18:12:10.453Z,99104.22
2023-02-19T18:17:16.149Z,99105.91
2023-02-19T18:22:19.780Z,98945.81
2023-02-19T18:27:23.530Z,99077.59
2023-02-19T18:32:28.364Z,99114.28
2023-02-19T18:37:32.926Z,99071.06
2023-02-19T18:42:36.548Z,99111.78
2023-02-19T18:47:41.448Z,98939.09
2023-02-19T18:52:44.958Z,99063.53
2023-02-19T18:57:49.912Z,99118.47
2023-02-19T19:02:58.525Z,99125.31
2023-02-19T19:08:02.170Z,99141.56
2023-02-19T19:13:06.579Z,98986.66
2023-02-19T19:18:11.477Z,99147.47
2023-02-19T19:23:14.929Z,99165.91
2023-02-19T19:28:18.469Z,99169.94
2023-02-19T19:33:23.244Z,98872.53
2023-02-19T19:38:26.887Z,99113.91
2023-02-19T19:43:31.508Z,99148.13
2023-02-19T19:48:36.346Z,99064.75
2023-02-19T19:53:39.761Z,99168.53
2023-02-19T19:58:44.312Z,99139.69
2023-02-19T20:03:51.083Z,99171.38
2023-02-19T20:08:54.587Z,99176.78
2023-02-19T20:13:57.974Z,99171.38
2023-02-19T20:19:02.851Z,99028.81
2023-02-19T20:24:07.021Z,99169.41
2023-02-19T20:29:11.333Z,99158.53
2023-02-19T20:34:16.215Z,99148.44
2023-02-19T20:39:21.899Z,99187.53
2023-02-19T20:44:26.068Z,99078.06
2023-02-19T20:49:33.327Z,99170.28
2023-02-19T20:54:38.293Z,99171.78
2023-02-19T20:59:44.111Z,99052.91
2023-02-19T21:04:49.078Z,99170.09
2023-02-19T21:09:52.582Z,99185.84
2023-02-19T21:14:56.069Z,99165.56
2023-02-19T21:20:00.808Z,99166.22
2023-02-19T21:25:07.213Z,98942.19
2023-02-19T21:30:11.053Z,98806.56
2023-02-19T21:35:16.095Z,99182.00
2023-02-19T21:40:20.039Z,99176.97
2023-02-19T21:45:23.495Z,98923.59
2023-02-19T21:50:28.314Z,99168.59
2023-02-19T21:55:31.847Z,99145.47
2023-02-19T22:00:35.329Z,99163.22
2023-02-19T22:05:40.321Z,98954.47
2023-02-19T22:10:43.907Z,98972.41
2023-02-19T22:15:47.372Z,99189.69
2023-02-19T22:20:52.146Z,99157.84
2023-02-19T22:25:55.553Z,99162.84
2023-02-19T22:30:59.051Z,99163.56
2023-02-19T22:36:03.980Z,99186.34
2023-02-19T22:41:11.092Z,99195.41
2023-02-19T22:46:16.563Z,99194.06
2023-02-19T22:51:23.951Z,99166.56
2023-02-19T22:56:28.902Z,99194.09
2023-02-19T23:01:32.321Z,99196.25
2023-02-19T23:06:37.778Z,99206.13
2023-02-19T23:11:41.211Z,99219.56
2023-02-19T23:16:44.939Z,99181.13
2023-02-19T23:21:49.896Z,98986.63
2023-02-19T23:26:54.829Z,99159.47
2023-02-19T23:37:53.364Z,99169.03
2023-02-19T23:42:56.917Z,99219.19
2023-02-19T23:48:02.017Z,99219.19
2023-02-19T23:53:07.173Z,99218.16
2023-02-19T23:58:10.685Z,99165.44
